createdAt,value
2018-10-03T00:02:25.484Z,11.73
2018-10-03T00:04:54.167Z,7.13
2018-10-03T00:07:22.844Z,10.00
2018-10-03T00:09:51.556Z,12.17
2018-10-03T00:12:20.275Z,11.43
2018-10-03T00:14:48.956Z,15.40
2018-10-03T00:17:17.652Z,8.73
2018-10-03T00:19:46.328Z,11.53
2018-10-03T00:22:14.992Z,13.07
2018-10-03T00:24:43.656Z,18.50
2018-10-03T00:27:12.352Z,14.50
2018-10-03T00:29:41.021Z,13.00
2018-10-03T00:32:09.716Z,7.07
2018-10-03T00:34:38.408Z,17.30
2018-10-03T00:37:07.109Z,10.13
2018-10-03T00:39:35.818Z,14.43
2018-10-03T00:42:04.517Z,6.33
2018-10-03T00:44:33.199Z,16.43
2018-10-03T00:47:01.879Z,10.00
2018-10-03T00:49:30.584Z,6.80
2018-10-03T00:51:59.269Z,11.27
2018-10-03T00:54:27.959Z,11.10
2018-10-03T00:56:56.643Z,13.60
2018-10-03T00:59:25.332Z,14.10
2018-10-03T01:01:54.012Z,15.47
2018-10-03T01:04:22.722Z,7.43
2018-10-03T01:06:51.463Z,9.90
2018-10-03T01:09:20.123Z,9.73
2018-10-03T01:11:48.836Z,7.00
2018-10-03T01:14:17.537Z,8.70
2018-10-03T01:16:46.221Z,9.47
2018-10-03T01:19:14.973Z,7.60
2018-10-03T01:21:43.686Z,4.93
2018-10-03T01:24:12.392Z,8.47
2018-10-03T01:26:41.114Z,5.90
2018-10-03T01:29:09.801Z,5.47
2018-10-03T01:31:38.505Z,13.67
2018-10-03T01:34:07.423Z,6.57
2018-10-03T01:36:36.144Z,11.40
2018-10-03T01:39:06.583Z,6.47
2018-10-03T01:41:35.343Z,6.27
2018-10-03T01:44:04.076Z,8.17
2018-10-03T01:46:32.816Z,8.70
2018-10-03T01:49:01.509Z,11.40
2018-10-03T01:51:30.229Z,9.17
2018-10-03T01:53:58.913Z,10.40
2018-10-03T01:56:27.623Z,8.77
2018-10-03T01:58:56.296Z,9.47
2018-10-03T02:01:24.981Z,10.93
2018-10-03T02:03:53.699Z,12.17
2018-10-03T02:06:22.407Z,6.43
2018-10-03T02:08:51.109Z,6.63
2018-10-03T02:11:19.815Z,11.07
2018-10-03T02:13:48.508Z,5.90
2018-10-03T02:16:17.302Z,6.20
2018-10-03T02:18:46.041Z,7.43
2018-10-03T02:21:14.732Z,7.27
2018-10-03T02:23:43.513Z,8.83
2018-10-03T02:26:12.205Z,8.47
2018-10-03T02:28:40.967Z,6.90
2018-10-03T02:31:09.717Z,6.73
2018-10-03T02:33:38.402Z,11.73
2018-10-03T02:36:07.116Z,5.83
2018-10-03T02:38:36.101Z,7.83
2018-10-03T02:41:04.807Z,12.03
2018-10-03T02:43:33.518Z,9.27
2018-10-03T02:46:02.204Z,6.43
2018-10-03T02:48:30.897Z,6.53
2018-10-03T02:50:59.575Z,8.03
2018-10-03T02:53:28.320Z,6.90
2018-10-03T02:55:57.038Z,11.00
2018-10-03T02:58:25.756Z,12.37
2018-10-03T03:00:54.464Z,12.73
2018-10-03T03:03:23.167Z,11.90
2018-10-03T03:05:51.851Z,13.73
2018-10-03T03:08:20.559Z,7.73
2018-10-03T03:10:49.496Z,7.87
2018-10-03T03:13:18.189Z,9.33
2018-10-03T03:15:46.905Z,13.63
2018-10-03T03:18:15.633Z,7.47
2018-10-03T03:20:44.300Z,6.60
2018-10-03T03:23:13.010Z,7.33
2018-10-03T03:25:41.672Z,8.83
2018-10-03T03:28:10.409Z,14.20
2018-10-03T03:30:39.144Z,12.23
2018-10-03T03:33:07.861Z,12.13
2018-10-03T03:35:36.551Z,9.90
2018-10-03T03:38:05.271Z,8.20
2018-10-03T03:40:34.040Z,8.27
2018-10-03T03:43:02.761Z,8.97
2018-10-03T03:45:31.472Z,7.13
2018-10-03T03:48:00.217Z,11.33
2018-10-03T03:50:29.217Z,12.30
2018-10-03T03:52:57.939Z,8.40
2018-10-03T03:55:26.643Z,9.97
2018-10-03T03:57:55.300Z,9.17
2018-10-03T04:00:23.973Z,13.03
2018-10-03T04:02:52.712Z,8.20
2018-10-03T04:05:21.443Z,6.97
2018-10-03T04:07:50.148Z,7.00
2018-10-03T04:10:26.188Z,5.33
2018-10-03T04:12:54.901Z,9.57
2018-10-03T04:15:23.649Z,6.33
2018-10-03T04:17:52.365Z,5.23
2018-10-03T04:20:21.071Z,6.63
2018-10-03T04:22:49.799Z,6.70
2018-10-03T04:25:18.556Z,5.70
2018-10-03T04:27:47.248Z,5.23
2018-10-03T04:30:15.941Z,6.17
2018-10-03T04:32:44.657Z,8.57
2018-10-03T04:35:13.364Z,10.13
2018-10-03T04:37:42.091Z,16.13
2018-10-03T04:40:10.793Z,6.30
2018-10-03T04:42:39.536Z,7.33
2018-10-03T04:45:08.248Z,4.80
2018-10-03T04:47:36.958Z,7.10
2018-10-03T04:50:05.665Z,7.43
2018-10-03T04:52:34.365Z,6.33
2018-10-03T04:55:03.056Z,4.60
2018-10-03T04:57:31.771Z,6.37
2018-10-03T05:00:00.438Z,7.70
2018-10-03T05:02:29.133Z,6.27
2018-10-03T05:04:57.866Z,7.90
2018-10-03T05:07:26.559Z,7.23
2018-10-03T05:09:55.300Z,9.10
2018-10-03T05:12:23.960Z,5.90
2018-10-03T05:14:52.713Z,8.80
2018-10-03T05:17:21.459Z,11.20
2018-10-03T05:19:50.171Z,9.67
2018-10-03T05:22:18.885Z,8.80
2018-10-03T05:24:47.640Z,6.20
2018-10-03T05:27:16.350Z,4.33
2018-10-03T05:29:45.072Z,11.60
2018-10-03T05:32:13.767Z,11.07
2018-10-03T05:34:42.495Z,10.37
2018-10-03T05:37:11.272Z,10.63
2018-10-03T05:39:40.027Z,6.53
2018-10-03T05:42:08.716Z,8.73
2018-10-03T05:44:37.428Z,7.53
2018-10-03T05:47:06.218Z,6.80
2018-10-03T05:49:34.928Z,8.53
2018-10-03T05:52:03.664Z,6.43
2018-10-03T05:54:32.393Z,7.37
2018-10-03T05:57:01.158Z,8.63
2018-10-03T05:59:29.903Z,9.83
2018-10-03T06:01:58.603Z,4.97
2018-10-03T06:04:27.298Z,7.70
2018-10-03T06:06:56.016Z,8.87
2018-10-03T06:09:24.746Z,9.87
2018-10-03T06:11:53.460Z,9.07
2018-10-03T06:14:22.179Z,7.77
2018-10-03T06:16:50.938Z,9.90
2018-10-03T06:19:19.642Z,8.43
2018-10-03T06:21:48.382Z,6.50
2018-10-03T06:24:17.099Z,9.20
2018-10-03T06:26:45.853Z,9.17
2018-10-03T06:29:14.655Z,12.93
2018-10-03T06:31:43.345Z,8.33
2018-10-03T06:34:12.087Z,9.80
2018-10-03T06:36:40.834Z,10.07
2018-10-03T06:39:10.516Z,8.30
2018-10-03T06:41:40.667Z,11.47
2018-10-03T06:44:09.740Z,16.37
2018-10-03T06:46:38.501Z,13.00
2018-10-03T06:49:07.237Z,8.70
2018-10-03T06:51:35.962Z,12.37
2018-10-03T06:54:04.780Z,7.00
2018-10-03T06:56:33.516Z,10.87
2018-10-03T06:59:02.287Z,8.33
2018-10-03T07:01:31.024Z,6.33
2018-10-03T07:03:59.700Z,9.77
2018-10-03T07:06:28.480Z,7.13
2018-10-03T07:08:57.259Z,9.13
2018-10-03T07:11:25.949Z,8.63
2018-10-03T07:13:54.668Z,5.80
2018-10-03T07:16:23.411Z,10.70
2018-10-03T07:18:52.185Z,6.33
2018-10-03T07:21:20.932Z,5.80
2018-10-03T07:23:49.640Z,8.50
2018-10-03T07:26:18.426Z,5.97
2018-10-03T07:28:47.117Z,6.90
2018-10-03T07:31:15.873Z,10.67
2018-10-03T07:33:44.593Z,8.07
2018-10-03T07:36:13.274Z,6.80
2018-10-03T07:38:42.032Z,13.50
2018-10-03T07:41:10.794Z,13.57
2018-10-03T07:43:39.503Z,12.47
2018-10-03T07:46:08.268Z,7.17
2018-10-03T07:48:37.019Z,13.13
2018-10-03T07:51:05.803Z,7.23
2018-10-03T07:53:34.550Z,13.27
2018-10-03T07:56:03.252Z,13.13
2018-10-03T07:58:32.016Z,12.23
2018-10-03T08:01:00.716Z,13.93
2018-10-03T08:03:29.391Z,12.83
2018-10-03T08:05:58.112Z,14.33
2018-10-03T08:08:26.829Z,17.33
2018-10-03T08:10:55.582Z,16.67
2018-10-03T08:13:24.336Z,13.60
2018-10-03T08:15:53.036Z,12.03
2018-10-03T08:18:21.741Z,12.90
2018-10-03T08:20:50.466Z,13.13
2018-10-03T08:23:19.193Z,13.43
2018-10-03T08:25:47.920Z,16.80
2018-10-03T08:28:16.720Z,11.60
2018-10-03T08:30:45.468Z,13.00
2018-10-03T08:33:14.216Z,9.33
2018-10-03T08:35:42.928Z,14.27
2018-10-03T08:38:11.657Z,11.73
2018-10-03T08:40:40.398Z,12.07
2018-10-03T08:43:09.257Z,15.30
2018-10-03T08:45:38.108Z,15.43
2018-10-03T08:48:06.781Z,14.07
2018-10-03T08:50:35.500Z,16.27
2018-10-03T08:53:04.277Z,14.30
2018-10-03T08:55:33.010Z,12.60
2018-10-03T08:58:01.769Z,11.37
2018-10-03T09:00:30.529Z,13.37
2018-10-03T09:02:59.250Z,13.03
2018-10-03T09:05:27.925Z,11.63
2018-10-03T09:08:07.260Z,17.20
2018-10-03T09:10:36.067Z,17.90
2018-10-03T09:13:04.828Z,11.67
2018-10-03T09:15:33.566Z,13.27
2018-10-03T09:18:02.295Z,13.10
2018-10-03T09:20:31.128Z,10.33
2018-10-03T09:22:59.830Z,9.57
2018-10-03T09:25:28.615Z,10.00
2018-10-03T09:27:57.343Z,14.63
2018-10-03T09:30:26.050Z,11.57
2018-10-03T09:32:54.780Z,14.50
2018-10-03T09:35:23.540Z,11.60
2018-10-03T09:37:52.321Z,8.97
2018-10-03T09:40:21.039Z,15.10
2018-10-03T09:42:49.768Z,12.53
2018-10-03T09:45:18.505Z,13.77
2018-10-03T09:47:47.284Z,10.20
2018-10-03T09:50:16.016Z,6.20
2018-10-03T09:52:44.757Z,5.23
2018-10-03T09:55:13.475Z,6.50
2018-10-03T09:57:42.250Z,10.20
2018-10-03T10:00:11.038Z,6.80
2018-10-03T10:02:39.858Z,3.17
2018-10-03T10:05:08.680Z,8.20
2018-10-03T10:07:37.407Z,5.63
2018-10-03T10:10:06.188Z,4.27
2018-10-03T10:12:34.882Z,5.73
2018-10-03T10:15:03.634Z,4.90
2018-10-03T10:17:32.324Z,5.13
2018-10-03T10:20:01.094Z,3.00
2018-10-03T10:22:29.764Z,6.23
2018-10-03T10:24:58.533Z,4.40
2018-10-03T10:27:27.257Z,5.70
2018-10-03T10:29:56.014Z,3.13
2018-10-03T10:32:24.805Z,5.27
2018-10-03T10:34:53.538Z,5.07
2018-10-03T10:37:22.275Z,3.50
2018-10-03T10:39:51.316Z,4.57
2018-10-03T10:42:21.165Z,5.90
2018-10-03T10:44:50.130Z,4.27
2018-10-03T10:47:18.957Z,2.47
2018-10-03T10:49:47.836Z,6.63
2018-10-03T10:52:16.720Z,4.07
2018-10-03T10:54:45.431Z,3.57
2018-10-03T10:57:14.308Z,1.60
2018-10-03T10:59:43.227Z,14.43
2018-10-03T11:02:12.152Z,4.30
2018-10-03T11:04:40.984Z,7.13
2018-10-03T11:07:09.773Z,3.30
2018-10-03T11:09:38.848Z,17.53
2018-10-03T11:12:07.708Z,5.60
2018-10-03T11:14:36.432Z,5.83
2018-10-03T11:17:05.224Z,5.73
2018-10-03T11:19:33.949Z,2.97
2018-10-03T11:22:02.896Z,3.43
2018-10-03T11:24:31.728Z,3.70
2018-10-03T11:27:00.304Z,3.20
2018-10-03T11:29:29.022Z,2.33
2018-10-03T11:31:57.825Z,1.67
2018-10-03T11:34:26.569Z,3.77
2018-10-03T11:36:55.302Z,3.40
2018-10-03T11:39:24.013Z,7.60
2018-10-03T11:41:52.839Z,5.37
2018-10-03T11:44:21.555Z,4.60
2018-10-03T11:46:50.316Z,1.53
2018-10-03T11:49:19.068Z,15.63
2018-10-03T11:51:47.756Z,4.97
2018-10-03T11:54:16.485Z,3.70
2018-10-03T11:56:45.184Z,7.90
2018-10-03T11:59:13.908Z,1.77
2018-10-03T12:01:42.636Z,2.67
2018-10-03T12:04:11.407Z,1.50
2018-10-03T12:06:40.184Z,2.97
2018-10-03T12:09:10.906Z,1.07
2018-10-03T12:11:39.692Z,1.63
2018-10-03T12:14:08.971Z,2.40
2018-10-03T12:16:37.899Z,1.87
2018-10-03T12:19:06.815Z,0.63
2018-10-03T12:21:35.535Z,1.80
2018-10-03T12:24:04.249Z,3.17
2018-10-03T12:26:32.982Z,0.80
2018-10-03T12:29:01.700Z,0.40
2018-10-03T12:31:30.465Z,6.53
2018-10-03T12:33:59.137Z,2.10
2018-10-03T12:36:27.853Z,4.03
2018-10-03T12:38:56.769Z,2.30
2018-10-03T12:41:25.568Z,7.57
2018-10-03T12:43:54.399Z,4.20
2018-10-03T12:46:23.178Z,3.67
2018-10-03T12:48:51.944Z,2.53
2018-10-03T12:51:20.645Z,1.53
2018-10-03T12:53:49.340Z,3.53
2018-10-03T12:56:18.054Z,2.63
2018-10-03T12:58:46.817Z,3.77
2018-10-03T13:01:15.541Z,1.63
2018-10-03T13:03:44.258Z,4.00
2018-10-03T13:06:25.924Z,1.77
2018-10-03T13:08:54.645Z,3.83
2018-10-03T13:11:23.355Z,7.33
2018-10-03T13:13:52.145Z,4.23
2018-10-03T13:16:20.980Z,4.70
2018-10-03T13:18:49.687Z,3.47
2018-10-03T13:21:18.448Z,3.73
2018-10-03T13:23:47.200Z,4.53
2018-10-03T13:26:15.926Z,2.50
2018-10-03T13:28:44.681Z,3.27
2018-10-03T13:31:13.371Z,1.70
2018-10-03T13:33:42.069Z,2.67
2018-10-03T13:36:10.792Z,4.50
2018-10-03T13:38:39.504Z,6.50
2018-10-03T13:41:08.240Z,2.53
2018-10-03T13:43:36.957Z,2.97
2018-10-03T13:46:05.688Z,2.27
2018-10-03T13:48:34.401Z,2.80
2018-10-03T13:51:03.162Z,4.63
2018-10-03T13:53:31.928Z,4.57
2018-10-03T13:56:00.666Z,7.13
2018-10-03T13:58:29.416Z,5.33
2018-10-03T14:00:58.120Z,5.67
2018-10-03T14:03:26.898Z,3.00
2018-10-03T14:05:55.663Z,2.90
2018-10-03T14:08:24.416Z,4.90
2018-10-03T14:10:53.343Z,1.60
2018-10-03T14:13:22.437Z,2.47
2018-10-03T14:15:51.204Z,5.07
2018-10-03T14:18:19.965Z,4.70
2018-10-03T14:20:48.740Z,2.47
2018-10-03T14:23:17.520Z,1.73
2018-10-03T14:25:46.252Z,4.43
2018-10-03T14:28:14.967Z,2.30
2018-10-03T14:30:43.720Z,4.30
2018-10-03T14:33:12.441Z,1.60
2018-10-03T14:35:41.123Z,3.27
2018-10-03T14:38:10.349Z,5.03
2018-10-03T14:40:39.157Z,3.37
2018-10-03T14:43:08.028Z,1.20
2018-10-03T14:45:36.828Z,2.63
2018-10-03T14:48:05.809Z,3.27
2018-10-03T14:50:34.529Z,3.00
2018-10-03T14:53:03.260Z,5.80
2018-10-03T14:55:32.039Z,5.13
2018-10-03T14:58:00.888Z,5.17
2018-10-03T15:00:30.013Z,4.97
2018-10-03T15:02:58.837Z,2.77
2018-10-03T15:05:27.722Z,2.33
2018-10-03T15:07:56.660Z,5.57
2018-10-03T15:10:25.409Z,6.60
2018-10-03T15:12:54.379Z,2.83
2018-10-03T15:15:23.142Z,5.67
2018-10-03T15:17:52.019Z,3.67
2018-10-03T15:20:20.818Z,5.07
2018-10-03T15:22:49.618Z,5.90
2018-10-03T15:25:18.417Z,7.23
2018-10-03T15:27:47.417Z,5.37
2018-10-03T15:30:16.326Z,4.43
2018-10-03T15:32:45.102Z,5.17
2018-10-03T15:35:14.086Z,3.17
2018-10-03T15:37:42.940Z,2.73
2018-10-03T15:40:11.828Z,3.30
2018-10-03T15:42:40.638Z,3.70
2018-10-03T15:45:09.390Z,1.67
2018-10-03T15:47:38.258Z,2.77
2018-10-03T15:50:07.740Z,4.10
2018-10-03T15:52:36.508Z,2.73
2018-10-03T15:55:05.547Z,3.20
2018-10-03T15:57:34.219Z,1.73
2018-10-03T16:00:03.202Z,3.10
2018-10-03T16:02:32.089Z,1.80
2018-10-03T16:05:00.893Z,3.80
2018-10-03T16:07:29.717Z,7.77
2018-10-03T16:09:58.485Z,3.97
2018-10-03T16:12:27.412Z,2.50
2018-10-03T16:14:56.132Z,2.57
2018-10-03T16:17:25.001Z,4.73
2018-10-03T16:19:53.757Z,1.87
2018-10-03T16:22:22.510Z,1.80
2018-10-03T16:24:51.232Z,4.37
2018-10-03T16:27:19.980Z,4.43
2018-10-03T16:29:48.709Z,2.07
2018-10-03T16:32:17.422Z,1.97
2018-10-03T16:34:46.120Z,2.57
2018-10-03T16:37:14.972Z,0.83
2018-10-03T16:39:43.704Z,0.93
2018-10-03T16:42:12.430Z,0.80
2018-10-03T16:44:41.171Z,3.77
2018-10-03T16:47:10.586Z,2.53
2018-10-03T16:49:44.494Z,5.30
2018-10-03T16:52:13.168Z,2.17
2018-10-03T16:54:42.084Z,4.20
2018-10-03T16:57:11.080Z,1.70
2018-10-03T16:59:40.005Z,2.90
2018-10-03T17:02:08.804Z,3.27
2018-10-03T17:04:37.664Z,1.50
2018-10-03T17:07:06.748Z,2.50
2018-10-03T17:09:35.508Z,3.30
2018-10-03T17:12:04.355Z,3.10
2018-10-03T17:14:36.389Z,2.63
2018-10-03T17:17:05.276Z,2.40
2018-10-03T17:19:34.256Z,3.73
2018-10-03T17:22:03.379Z,3.00
2018-10-03T17:24:36.321Z,3.37
2018-10-03T17:27:05.147Z,3.17
2018-10-03T17:29:33.939Z,4.80
2018-10-03T17:32:02.891Z,5.10
2018-10-03T17:34:31.837Z,3.70
2018-10-03T17:37:00.605Z,2.87
2018-10-03T17:39:29.548Z,4.93
2018-10-03T17:41:58.572Z,2.00
2018-10-03T17:44:27.263Z,6.30
2018-10-03T17:46:57.163Z,2.83
2018-10-03T17:49:25.875Z,4.17
2018-10-03T17:51:54.592Z,8.20
2018-10-03T17:54:23.301Z,5.77
2018-10-03T17:56:52.001Z,5.70
2018-10-03T17:59:20.769Z,8.10
2018-10-03T18:01:52.211Z,3.57
2018-10-03T18:04:20.997Z,3.53
2018-10-03T18:06:49.732Z,2.93
2018-10-03T18:09:18.504Z,4.77
2018-10-03T18:11:47.197Z,6.00
2018-10-03T18:14:15.908Z,6.80
2018-10-03T18:16:44.634Z,3.13
2018-10-03T18:19:13.350Z,1.60
2018-10-03T18:21:42.043Z,3.43
2018-10-03T18:24:10.793Z,1.63
2018-10-03T18:26:39.519Z,4.17
2018-10-03T18:29:08.246Z,2.37
2018-10-03T18:31:37.051Z,3.87
2018-10-03T18:34:05.834Z,2.63
2018-10-03T18:36:34.547Z,2.20
2018-10-03T18:39:03.365Z,3.07
2018-10-03T18:41:32.048Z,1.47
2018-10-03T18:44:00.768Z,3.50
2018-10-03T18:46:29.503Z,2.60
2018-10-03T18:49:01.178Z,1.73
2018-10-03T18:51:29.855Z,2.63
2018-10-03T18:53:58.583Z,3.97
2018-10-03T18:56:27.377Z,6.20
2018-10-03T18:58:56.140Z,3.67
2018-10-03T19:01:24.912Z,5.43
2018-10-03T19:03:53.597Z,4.10
2018-10-03T19:06:22.274Z,8.53
2018-10-03T19:08:51.032Z,4.43
2018-10-03T19:11:19.786Z,7.20
2018-10-03T19:13:48.460Z,4.73
2018-10-03T19:16:17.263Z,3.83
2018-10-03T19:18:45.960Z,5.20
2018-10-03T19:21:14.648Z,4.33
2018-10-03T19:23:43.376Z,5.07
2018-10-03T19:26:12.124Z,6.93
2018-10-03T19:28:40.953Z,7.23
2018-10-03T19:31:09.691Z,4.80
2018-10-03T19:33:38.392Z,3.73
2018-10-03T19:36:07.112Z,6.63
2018-10-03T19:38:35.894Z,6.53
2018-10-03T19:41:04.596Z,5.57
2018-10-03T19:43:33.440Z,5.20
2018-10-03T19:46:02.113Z,4.43
2018-10-03T19:48:30.878Z,3.43
2018-10-03T19:50:59.587Z,4.80
2018-10-03T19:53:35.073Z,3.80
2018-10-03T19:56:04.365Z,8.13
2018-10-03T19:58:33.364Z,3.00
2018-10-03T20:01:02.068Z,4.83
2018-10-03T20:03:31.052Z,5.03
2018-10-03T20:05:59.722Z,4.70
2018-10-03T20:08:28.405Z,4.03
2018-10-03T20:10:57.101Z,5.53
2018-10-03T20:13:25.808Z,5.17
2018-10-03T20:15:54.570Z,5.23
2018-10-03T20:18:23.399Z,4.73
2018-10-03T20:20:52.375Z,11.60
2018-10-03T20:23:21.476Z,11.70
2018-10-03T20:25:50.206Z,15.90
2018-10-03T20:28:18.988Z,11.33
2018-10-03T20:30:47.708Z,9.83
2018-10-03T20:33:16.492Z,8.70
2018-10-03T20:35:45.177Z,10.10
2018-10-03T20:38:13.871Z,9.17
2018-10-03T20:40:42.570Z,6.97
2018-10-03T20:43:11.310Z,6.73
2018-10-03T20:45:40.026Z,5.90
2018-10-03T20:48:08.851Z,7.17
2018-10-03T20:50:37.593Z,13.23
2018-10-03T20:53:06.337Z,8.60
2018-10-03T20:55:35.034Z,5.80
2018-10-03T20:58:03.754Z,8.23
2018-10-03T21:00:32.476Z,9.60
2018-10-03T21:03:01.200Z,4.40
2018-10-03T21:05:29.906Z,7.70
2018-10-03T21:07:58.610Z,5.27
2018-10-03T21:10:27.321Z,3.70
2018-10-03T21:12:56.105Z,5.17
2018-10-03T21:15:24.846Z,4.20
2018-10-03T21:17:53.590Z,6.03
2018-10-03T21:20:22.325Z,7.83
2018-10-03T21:22:51.010Z,5.57
2018-10-03T21:25:19.737Z,4.30
2018-10-03T21:27:48.451Z,8.40
2018-10-03T21:30:17.127Z,5.80
2018-10-03T21:32:45.905Z,7.83
2018-10-03T21:35:14.661Z,7.67
2018-10-03T21:37:43.386Z,10.03
2018-10-03T21:40:12.117Z,12.20
2018-10-03T21:42:40.800Z,10.90
2018-10-03T21:45:09.564Z,10.27
2018-10-03T21:47:38.308Z,12.63
2018-10-03T21:50:07.068Z,10.60
2018-10-03T21:52:35.760Z,12.30
2018-10-03T21:55:04.494Z,8.93
2018-10-03T21:57:33.212Z,8.83
2018-10-03T22:00:01.898Z,11.03
2018-10-03T22:02:30.627Z,12.37
2018-10-03T22:04:59.365Z,9.47
2018-10-03T22:07:28.081Z,10.40
2018-10-03T22:09:56.789Z,10.07
2018-10-03T22:12:25.483Z,8.83
2018-10-03T22:14:54.315Z,9.57
2018-10-03T22:17:24.678Z,11.47
2018-10-03T22:19:54.553Z,9.87
2018-10-03T22:22:23.308Z,10.03
2018-10-03T22:24:52.057Z,7.20
2018-10-03T22:27:20.759Z,3.53
2018-10-03T22:29:49.429Z,4.33
2018-10-03T22:32:18.084Z,4.63
2018-10-03T22:34:46.791Z,3.03
2018-10-03T22:37:15.565Z,5.37
2018-10-03T22:39:44.276Z,3.97
2018-10-03T22:42:12.957Z,6.00
2018-10-03T22:44:41.661Z,5.53
2018-10-03T22:47:10.341Z,8.70
2018-10-03T22:49:39.053Z,8.90
2018-10-03T22:52:07.772Z,4.37
2018-10-03T22:54:36.463Z,7.67
2018-10-03T22:57:05.161Z,8.00
2018-10-03T22:59:33.892Z,4.67
2018-10-03T23:02:02.616Z,3.70
2018-10-03T23:04:31.344Z,5.67
2018-10-03T23:07:00.016Z,7.60
2018-10-03T23:09:28.721Z,5.90
2018-10-03T23:11:57.425Z,4.57
2018-10-03T23:14:26.128Z,3.77
2018-10-03T23:16:54.983Z,6.73
2018-10-03T23:19:23.785Z,6.83
2018-10-03T23:21:52.447Z,5.10
2018-10-03T23:24:21.203Z,5.27
2018-10-03T23:26:49.896Z,6.80
2018-10-03T23:29:18.588Z,7.57
2018-10-03T23:31:47.282Z,3.47
2018-10-03T23:34:15.967Z,6.10
2018-10-03T23:36:44.659Z,3.17
2018-10-03T23:39:13.394Z,3.30
2018-10-03T23:41:42.231Z,3.67
2018-10-03T23:44:11.253Z,3.87
2018-10-03T23:46:39.963Z,4.83
2018-10-03T23:49:08.691Z,3.50
2018-10-03T23:51:37.389Z,5.77
2018-10-03T23:54:06.112Z,3.67
2018-10-03T23:56:34.845Z,4.27
2018-10-03T23:59:03.541Z,4.43
